createdAt,value
2022-08-23T00:01:35.609Z,14.10
2022-08-23T00:04:10.152Z,14.38
2022-08-23T00:06:39.936Z,12.82
2022-08-23T00:09:07.626Z,13.13
2022-08-23T00:11:37.216Z,13.07
2022-08-23T00:14:13.965Z,13.23
2022-08-23T00:16:41.965Z,14.25
2022-08-23T00:19:13.475Z,11.55
2022-08-23T00:21:41.807Z,13.43
2022-08-23T00:24:12.244Z,14.45
2022-08-23T00:26:49.890Z,11.13
2022-08-23T00:29:18.574Z,12.68
2022-08-23T00:31:47.136Z,14.75
2022-08-23T00:34:15.352Z,13.17
2022-08-23T00:36:45.197Z,12.77
2022-08-23T00:39:13.034Z,14.98
2022-08-23T00:41:40.771Z,14.98
2022-08-23T00:44:38.917Z,13.45
2022-08-23T00:47:26.887Z,15.40
2022-08-23T00:50:23.347Z,17.13
2022-08-23T00:53:07.218Z,15.88
2022-08-23T00:55:35.641Z,17.27
2022-08-23T00:58:03.920Z,14.73
2022-08-23T01:00:32.901Z,17.70
2022-08-23T01:03:00.729Z,18.95
2022-08-23T01:05:43.444Z,17.40
2022-08-23T01:08:12.892Z,16.75
2022-08-23T01:10:48.283Z,16.38
2022-08-23T01:13:30.442Z,18.73
2022-08-23T01:16:04.124Z,17.58
2022-08-23T01:18:32.848Z,15.43
2022-08-23T01:21:17.089Z,17.73
2022-08-23T01:23:52.383Z,15.40
2022-08-23T01:26:22.628Z,14.23
2022-08-23T01:28:51.818Z,16.27
2022-08-23T01:31:22.394Z,14.85
2022-08-23T01:33:57.317Z,15.10
2022-08-23T01:36:26.123Z,15.80
2022-08-23T01:38:54.663Z,15.10
2022-08-23T01:41:22.549Z,16.33
2022-08-23T01:43:51.385Z,14.40
2022-08-23T01:46:23.560Z,18.27
2022-08-23T01:48:51.650Z,17.40
2022-08-23T01:51:20.599Z,15.57
2022-08-23T01:53:48.406Z,17.65
2022-08-23T01:56:31.469Z,17.80
2022-08-23T01:59:11.119Z,18.52
2022-08-23T02:01:44.436Z,15.40
2022-08-23T02:04:11.895Z,15.30
2022-08-23T02:06:39.686Z,16.63
2022-08-23T02:09:17.730Z,16.80
2022-08-23T02:11:47.958Z,17.92
2022-08-23T02:14:21.472Z,17.00
2022-08-23T02:17:04.532Z,16.03
2022-08-23T02:19:37.954Z,17.77
2022-08-23T02:22:07.383Z,15.43
2022-08-23T02:24:36.078Z,18.58
2022-08-23T02:27:05.727Z,16.85
2022-08-23T02:29:39.452Z,17.60
2022-08-23T02:32:11.127Z,16.83
2022-08-23T02:34:40.260Z,15.98
2022-08-23T02:37:11.713Z,17.17
2022-08-23T02:39:40.433Z,17.92
2022-08-23T02:42:11.765Z,14.20
2022-08-23T02:44:43.006Z,19.05
2022-08-23T02:47:12.190Z,15.73
2022-08-23T02:49:43.606Z,16.83
2022-08-23T02:52:11.082Z,16.48
2022-08-23T02:54:40.077Z,14.77
2022-08-23T02:57:08.597Z,16.50
2022-08-23T02:59:36.179Z,13.43
2022-08-23T03:02:03.634Z,14.10
2022-08-23T03:04:36.408Z,13.07
2022-08-23T03:07:04.585Z,17.63
2022-08-23T03:09:32.202Z,14.20
2022-08-23T03:11:59.607Z,18.50
2022-08-23T03:14:28.285Z,16.27
2022-08-23T03:16:57.477Z,13.73
2022-08-23T03:19:26.193Z,14.40
2022-08-23T03:21:53.503Z,14.35
2022-08-23T03:24:22.689Z,14.25
2022-08-23T03:26:50.611Z,13.40
2022-08-23T03:29:19.278Z,14.25
2022-08-23T03:32:05.512Z,16.37
2022-08-23T03:34:37.330Z,15.30
2022-08-23T03:37:07.335Z,16.25
2022-08-23T03:39:35.668Z,19.10
2022-08-23T03:42:03.149Z,18.83
2022-08-23T03:44:33.402Z,16.50
2022-08-23T03:47:00.841Z,16.35
2022-08-23T03:49:28.328Z,18.92
2022-08-23T03:51:57.509Z,16.77
2022-08-23T03:54:25.297Z,19.48
2022-08-23T03:57:03.269Z,17.27
2022-08-23T03:59:36.962Z,18.88
2022-08-23T04:02:07.927Z,19.00
2022-08-23T04:04:35.764Z,19.65
2022-08-23T04:07:36.489Z,17.65
2022-08-23T04:10:04.925Z,16.43
2022-08-23T04:12:36.888Z,17.33
2022-08-23T04:15:07.028Z,16.35
2022-08-23T04:17:37.083Z,16.52
2022-08-23T04:20:06.820Z,17.15
2022-08-23T04:22:39.347Z,15.77
2022-08-23T04:25:32.858Z,14.75
2022-08-23T04:27:55.265Z,15.10
2022-08-23T04:30:23.086Z,15.32
2022-08-23T04:32:51.331Z,16.52
2022-08-23T04:35:18.781Z,14.83
2022-08-23T04:37:46.664Z,16.08
2022-08-23T04:40:32.765Z,16.05
2022-08-23T04:43:00.234Z,15.45
2022-08-23T04:45:27.842Z,16.17
2022-08-23T04:47:55.458Z,17.73
2022-08-23T04:50:22.969Z,17.90
2022-08-23T04:53:08.920Z,19.50
2022-08-23T04:55:43.941Z,16.45
2022-08-23T04:58:11.507Z,17.38
2022-08-23T05:00:50.852Z,15.77
2022-08-23T05:03:23.127Z,15.98
2022-08-23T05:05:54.695Z,15.80
2022-08-23T05:08:27.914Z,17.98
2022-08-23T05:10:55.733Z,17.77
2022-08-23T05:13:23.306Z,15.43
2022-08-23T05:15:52.934Z,15.75
2022-08-23T05:18:23.355Z,16.45
2022-08-23T05:20:52.026Z,17.00
2022-08-23T05:23:20.206Z,15.93
2022-08-23T05:26:01.269Z,16.73
2022-08-23T05:28:35.294Z,18.15
2022-08-23T05:31:21.045Z,18.67
2022-08-23T05:33:54.322Z,16.23
2022-08-23T05:36:29.928Z,19.85
2022-08-23T05:38:57.498Z,19.97
2022-08-23T05:41:36.999Z,17.10
2022-08-23T05:44:07.149Z,17.52
2022-08-23T05:46:36.944Z,18.13
2022-08-23T05:49:21.476Z,18.25
2022-08-23T05:51:51.704Z,17.00
2022-08-23T05:54:21.152Z,17.58
2022-08-23T05:57:02.404Z,16.90
2022-08-23T05:59:30.064Z,15.05
2022-08-23T06:01:57.929Z,15.27
2022-08-23T06:04:25.368Z,16.93
2022-08-23T06:06:53.540Z,16.83
2022-08-23T06:09:21.158Z,17.75
2022-08-23T06:11:49.116Z,13.45
2022-08-23T06:14:18.025Z,14.85
2022-08-23T06:16:51.607Z,17.37
2022-08-23T06:19:24.235Z,15.73
2022-08-23T06:22:06.814Z,16.48
2022-08-23T06:24:39.073Z,14.10
2022-08-23T06:27:16.955Z,15.10
2022-08-23T06:29:46.417Z,16.47
2022-08-23T06:32:31.889Z,15.32
2022-08-23T06:35:39.421Z,14.70
2022-08-23T06:38:11.488Z,15.52
2022-08-23T06:40:48.362Z,13.25
2022-08-23T06:43:29.672Z,14.33
2022-08-23T06:46:19.670Z,16.85
2022-08-23T06:48:48.113Z,13.10
2022-08-23T06:51:30.195Z,13.25
2022-08-23T06:54:16.184Z,14.70
2022-08-23T06:57:08.567Z,13.73
2022-08-23T07:00:01.946Z,14.75
2022-08-23T07:02:55.371Z,12.73
2022-08-23T07:05:59.616Z,12.60
2022-08-23T07:08:29.961Z,15.70
2022-08-23T07:10:57.691Z,15.27
2022-08-23T07:13:25.682Z,17.08
2022-08-23T07:15:59.166Z,14.38
2022-08-23T07:18:27.360Z,18.90
2022-08-23T07:21:00.064Z,12.77
2022-08-23T07:23:28.095Z,14.20
2022-08-23T07:25:56.201Z,13.20
2022-08-23T07:28:27.276Z,14.45
2022-08-23T07:30:56.258Z,12.38
2022-08-23T07:33:23.772Z,12.90
2022-08-23T07:36:09.387Z,15.43
2022-08-23T07:38:37.086Z,11.38
2022-08-23T07:41:04.890Z,12.68
2022-08-23T07:43:34.293Z,13.00
2022-08-23T07:46:04.289Z,12.60
2022-08-23T07:48:52.940Z,12.17
2022-08-23T07:51:23.429Z,12.95
2022-08-23T07:53:52.216Z,12.68
2022-08-23T07:56:21.791Z,13.05
2022-08-23T07:59:07.713Z,13.85
2022-08-23T08:01:41.500Z,10.47
2022-08-23T08:04:09.354Z,14.13
2022-08-23T08:07:10.486Z,13.93
2022-08-23T08:09:41.346Z,11.38
2022-08-23T08:12:10.198Z,13.15
2022-08-23T08:14:38.932Z,14.60
2022-08-23T08:17:07.285Z,13.40
2022-08-23T08:20:10.342Z,11.98
2022-08-23T08:22:58.408Z,12.80
2022-08-23T08:25:34.386Z,11.77
2022-08-23T08:28:04.919Z,12.30
2022-08-23T08:30:33.684Z,10.70
2022-08-23T08:33:03.385Z,14.50
2022-08-23T08:35:32.553Z,12.85
2022-08-23T08:38:02.315Z,12.85
2022-08-23T08:40:35.874Z,11.27
2022-08-23T08:43:34.846Z,13.75
2022-08-23T08:46:28.387Z,13.20
2022-08-23T08:48:59.381Z,11.70
2022-08-23T08:51:51.911Z,11.95
2022-08-23T08:54:23.305Z,14.80
2022-08-23T08:56:56.181Z,13.30
2022-08-23T08:59:29.443Z,12.80
2022-08-23T09:01:58.758Z,13.65
2022-08-23T09:04:37.524Z,12.20
2022-08-23T09:07:31.127Z,13.23
2022-08-23T09:10:26.394Z,12.20
2022-08-23T09:13:22.937Z,14.60
2022-08-23T09:16:06.267Z,15.07
2022-08-23T09:18:36.389Z,16.20
2022-08-23T09:21:07.394Z,13.27
2022-08-23T09:23:40.958Z,13.50
2022-08-23T09:26:25.841Z,12.07
2022-08-23T09:29:02.922Z,12.20
2022-08-23T09:31:42.210Z,15.30
2022-08-23T09:34:31.065Z,14.83
2022-08-23T09:37:22.481Z,13.32
2022-08-23T09:40:17.063Z,13.45
2022-08-23T09:42:47.520Z,13.00
2022-08-23T09:45:50.067Z,12.93
2022-08-23T09:48:39.878Z,13.57
2022-08-23T09:51:35.122Z,12.68
2022-08-23T09:54:24.582Z,17.08
2022-08-23T09:56:55.689Z,13.98
2022-08-23T09:59:26.603Z,13.77
2022-08-23T10:02:02.069Z,10.57
2022-08-23T10:04:46.264Z,12.25
2022-08-23T10:07:40.220Z,11.68
2022-08-23T10:10:23.551Z,12.93
2022-08-23T10:12:54.449Z,11.55
2022-08-23T10:15:44.963Z,12.03
2022-08-23T10:18:18.134Z,14.63
2022-08-23T10:21:27.678Z,16.35
2022-08-23T10:24:18.533Z,16.58
2022-08-23T10:27:49.662Z,13.70
2022-08-23T10:30:23.875Z,17.17
2022-08-23T10:33:01.001Z,25.63
2022-08-23T10:35:39.930Z,22.17
2022-08-23T10:38:24.025Z,17.63
2022-08-23T10:41:21.345Z,17.52
2022-08-23T10:44:27.261Z,21.33
2022-08-23T10:47:14.053Z,20.85
2022-08-23T10:49:42.926Z,20.45
2022-08-23T10:52:19.525Z,22.00
2022-08-23T10:55:06.284Z,20.17
2022-08-23T10:57:41.168Z,19.93
2022-08-23T11:00:16.273Z,18.73
2022-08-23T11:02:53.570Z,19.33
2022-08-23T11:05:31.947Z,20.73
2022-08-23T11:08:11.537Z,19.02
2022-08-23T11:10:40.124Z,20.70
2022-08-23T11:13:13.968Z,21.38
2022-08-23T11:15:56.770Z,20.00
2022-08-23T11:18:31.277Z,18.80
2022-08-23T11:21:31.856Z,18.52
2022-08-23T11:24:05.097Z,21.43
2022-08-23T11:26:41.790Z,19.10
2022-08-23T11:29:11.082Z,17.17
2022-08-23T11:31:51.011Z,18.00
2022-08-23T11:34:43.692Z,19.85
2022-08-23T11:37:20.490Z,14.10
2022-08-23T11:39:58.698Z,16.92
2022-08-23T11:42:40.644Z,16.95
2022-08-23T11:45:28.168Z,14.30
2022-08-23T11:48:15.097Z,15.85
2022-08-23T11:50:57.484Z,15.30
2022-08-23T11:53:49.989Z,15.18
2022-08-23T11:56:46.131Z,17.20
2022-08-23T11:59:58.244Z,13.52
2022-08-23T12:02:41.287Z,14.52
2022-08-23T12:05:23.805Z,13.33
2022-08-23T12:07:53.341Z,12.77
2022-08-23T12:10:41.791Z,14.88
2022-08-23T12:13:21.561Z,12.82
2022-08-23T12:16:17.084Z,12.60
2022-08-23T12:18:48.071Z,14.70
2022-08-23T12:21:42.002Z,11.13
2022-08-23T12:24:27.560Z,11.20
2022-08-23T12:26:58.545Z,10.95
2022-08-23T12:29:45.558Z,11.02
2022-08-23T12:32:25.170Z,10.70
2022-08-23T12:35:06.652Z,10.38
2022-08-23T12:37:45.429Z,12.85
2022-08-23T12:40:35.178Z,10.30
2022-08-23T12:43:14.879Z,12.18
2022-08-23T12:45:54.467Z,10.57
2022-08-23T12:48:25.340Z,12.77
2022-08-23T12:51:01.740Z,12.70
2022-08-23T12:53:42.653Z,11.95
2022-08-23T12:56:31.872Z,10.80
2022-08-23T12:59:07.691Z,13.30
2022-08-23T13:01:38.692Z,12.00
2022-08-23T13:04:12.997Z,12.07
2022-08-23T13:06:57.891Z,11.27
2022-08-23T13:09:33.896Z,11.75
2022-08-23T13:12:02.666Z,13.40
2022-08-23T13:14:33.419Z,12.07
2022-08-23T13:17:31.697Z,11.55
2022-08-23T13:20:01.492Z,10.50
2022-08-23T13:22:31.446Z,11.18
2022-08-23T13:25:28.009Z,13.30
2022-08-23T13:27:56.068Z,13.07
2022-08-23T13:30:32.707Z,12.70
2022-08-23T13:33:09.171Z,12.82
2022-08-23T13:35:39.308Z,12.27
2022-08-23T13:38:21.276Z,11.43
2022-08-23T13:41:04.120Z,11.68
2022-08-23T13:43:34.346Z,12.15
2022-08-23T13:46:12.808Z,12.00
2022-08-23T13:49:03.106Z,10.93
2022-08-23T13:51:39.935Z,11.47
2022-08-23T13:54:12.624Z,11.60
2022-08-23T13:56:51.713Z,11.80
2022-08-23T13:59:22.849Z,11.98
2022-08-23T14:01:53.664Z,11.88
2022-08-23T14:04:21.277Z,10.67
2022-08-23T14:06:49.412Z,10.80
2022-08-23T14:09:17.469Z,13.15
2022-08-23T14:11:46.095Z,11.50
2022-08-23T14:14:13.460Z,11.18
2022-08-23T14:16:41.632Z,15.67
2022-08-23T14:19:16.602Z,12.27
2022-08-23T14:22:00.352Z,15.35
2022-08-23T14:24:28.375Z,15.05
2022-08-23T14:26:56.789Z,13.05
2022-08-23T14:29:25.611Z,12.00
2022-08-23T14:31:52.956Z,12.60
2022-08-23T14:34:21.537Z,11.32
2022-08-23T14:39:37.578Z,9.45
2022-08-23T14:42:05.877Z,11.50
2022-08-23T14:44:36.010Z,10.23
2022-08-23T14:47:07.621Z,11.57
2022-08-23T14:49:35.197Z,8.18
2022-08-23T14:52:03.055Z,9.20
2022-08-23T14:54:30.408Z,9.57
2022-08-23T14:56:57.776Z,11.18
2022-08-23T14:59:25.228Z,13.48
2022-08-23T15:01:54.233Z,10.32
2022-08-23T15:04:23.855Z,15.40
2022-08-23T15:07:16.620Z,10.13
2022-08-23T15:09:40.516Z,11.52
2022-08-23T15:14:57.093Z,12.50
2022-08-23T15:17:30.357Z,12.75
2022-08-23T15:19:59.712Z,12.17
2022-08-23T15:22:27.079Z,12.60
2022-08-23T15:24:54.379Z,14.48
2022-08-23T15:27:23.096Z,12.85
2022-08-23T15:29:50.469Z,12.02
2022-08-23T15:32:22.718Z,14.03
2022-08-23T15:34:50.994Z,14.20
2022-08-23T15:37:21.278Z,14.77
2022-08-23T15:39:49.907Z,13.40
2022-08-23T15:42:20.547Z,15.35
2022-08-23T15:44:49.372Z,14.80
2022-08-23T15:47:25.616Z,15.57
2022-08-23T15:49:53.300Z,12.30
2022-08-23T15:52:21.165Z,16.38
2022-08-23T15:54:48.778Z,13.43
2022-08-23T15:57:20.561Z,10.50
2022-08-23T15:59:48.259Z,14.35
2022-08-23T16:02:15.842Z,17.33
2022-08-23T16:04:43.490Z,11.85
2022-08-23T16:07:14.712Z,13.70
2022-08-23T16:09:42.701Z,13.30
2022-08-23T16:12:10.507Z,13.80
2022-08-23T16:14:38.805Z,13.25
2022-08-23T16:17:07.618Z,14.13
2022-08-23T16:19:36.764Z,17.48
2022-08-23T16:22:04.596Z,17.90
2022-08-23T16:24:32.190Z,14.55
2022-08-23T16:26:59.598Z,13.30
2022-08-23T16:29:32.173Z,14.75
2022-08-23T16:31:59.859Z,12.95
2022-08-23T16:34:27.411Z,16.60
2022-08-23T16:36:58.229Z,13.70
2022-08-23T16:39:26.912Z,13.10
2022-08-23T16:41:54.496Z,13.43
2022-08-23T16:44:21.981Z,13.05
2022-08-23T16:46:49.448Z,13.30
2022-08-23T16:49:19.016Z,13.55
2022-08-23T16:51:47.340Z,12.60
2022-08-23T16:54:15.373Z,14.57
2022-08-23T16:56:43.647Z,13.98
2022-08-23T16:59:12.357Z,15.83
2022-08-23T17:01:53.020Z,13.23
2022-08-23T17:04:21.909Z,14.88
2022-08-23T17:06:49.599Z,13.38
2022-08-23T17:09:17.145Z,13.32
2022-08-23T17:11:45.273Z,18.23
2022-08-23T17:14:13.067Z,14.20
2022-08-23T17:16:42.007Z,16.45
2022-08-23T17:19:09.442Z,16.40
2022-08-23T17:21:37.839Z,19.60
2022-08-23T17:24:05.465Z,19.13
2022-08-23T17:26:33.511Z,18.70
2022-08-23T17:29:02.248Z,18.85
2022-08-23T17:31:29.813Z,19.77
2022-08-23T17:34:02.820Z,21.83
2022-08-23T17:36:34.353Z,21.10
2022-08-23T17:39:03.541Z,21.67
2022-08-23T17:41:35.290Z,16.90
2022-08-23T17:44:07.802Z,18.73
2022-08-23T17:46:36.761Z,17.92
2022-08-23T17:49:05.672Z,17.53
2022-08-23T17:51:34.288Z,19.52
2022-08-23T17:54:03.290Z,19.90
2022-08-23T17:56:31.304Z,21.15
2022-08-23T17:58:58.998Z,19.67
2022-08-23T18:01:27.707Z,20.00
2022-08-23T18:03:55.864Z,19.73
2022-08-23T18:06:25.767Z,21.60
2022-08-23T18:08:53.194Z,20.95
2022-08-23T18:11:20.634Z,18.30
2022-08-23T18:13:48.853Z,20.70
2022-08-23T18:16:16.571Z,22.33
2022-08-23T18:18:43.990Z,20.10
2022-08-23T18:21:14.681Z,21.17
2022-08-23T18:23:42.165Z,25.35
2022-08-23T18:26:33.972Z,21.27
2022-08-23T18:29:01.633Z,22.58
2022-08-23T18:31:29.609Z,19.63
2022-08-23T18:34:00.368Z,19.52
2022-08-23T18:36:29.604Z,20.50
2022-08-23T18:38:57.543Z,21.73
2022-08-23T18:41:24.981Z,17.55
2022-08-23T18:43:52.626Z,18.70
2022-08-23T18:46:21.112Z,16.48
2022-08-23T18:48:53.433Z,17.52
2022-08-23T18:51:22.448Z,16.53
2022-08-23T18:53:50.110Z,18.55
2022-08-23T18:56:17.683Z,19.85
2022-08-23T18:58:45.760Z,20.42
2022-08-23T19:01:35.335Z,17.65
2022-08-23T19:04:06.260Z,21.50
2022-08-23T19:06:34.900Z,21.25
2022-08-23T19:09:02.302Z,20.42
2022-08-23T19:11:30.490Z,22.15
2022-08-23T19:13:59.345Z,22.08
2022-08-23T19:16:27.099Z,22.53
2022-08-23T19:18:55.356Z,17.80
2022-08-23T19:21:25.416Z,19.63
2022-08-23T19:23:55.782Z,18.58
2022-08-23T19:26:30.497Z,19.35
2022-08-23T19:29:08.726Z,17.40
2022-08-23T19:31:42.994Z,17.63
2022-08-23T19:34:11.643Z,19.58
2022-08-23T19:36:50.345Z,19.80
2022-08-23T19:39:26.057Z,21.52
2022-08-23T19:41:53.925Z,24.07
2022-08-23T19:44:21.609Z,23.08
2022-08-23T19:46:49.484Z,24.38
2022-08-23T19:49:16.985Z,23.00
2022-08-23T19:51:45.368Z,20.05
2022-08-23T19:54:13.533Z,20.47
2022-08-23T19:56:47.241Z,22.98
2022-08-23T19:59:19.977Z,22.25
2022-08-23T20:01:49.873Z,21.30
2022-08-23T20:04:18.552Z,19.08
2022-08-23T20:06:46.717Z,23.33
2022-08-23T20:09:14.174Z,18.10
2022-08-23T20:11:42.265Z,19.30
2022-08-23T20:14:10.824Z,21.73
2022-08-23T20:16:41.463Z,19.20
2022-08-23T20:19:10.769Z,18.03
2022-08-23T20:21:40.143Z,16.77
2022-08-23T20:24:10.439Z,19.00
2022-08-23T20:26:44.712Z,18.38
2022-08-23T20:29:17.734Z,17.25
2022-08-23T20:31:54.690Z,18.73
2022-08-23T20:34:23.661Z,17.45
2022-08-23T20:36:56.500Z,19.10
2022-08-23T20:39:24.823Z,16.85
2022-08-23T20:41:53.193Z,17.30
2022-08-23T20:44:25.661Z,17.90
2022-08-23T20:46:55.339Z,17.98
2022-08-23T20:49:25.647Z,20.63
2022-08-23T20:51:53.023Z,17.40
2022-08-23T20:54:21.017Z,17.67
2022-08-23T20:56:51.490Z,16.73
2022-08-23T20:59:19.808Z,16.58
2022-08-23T21:01:50.773Z,16.95
2022-08-23T21:04:18.935Z,18.60
2022-08-23T21:06:50.963Z,17.13
2022-08-23T21:09:27.717Z,19.43
2022-08-23T21:11:57.695Z,18.02
2022-08-23T21:14:25.457Z,15.93
2022-08-23T21:16:53.201Z,15.60
2022-08-23T21:19:20.883Z,16.83
2022-08-23T21:21:49.242Z,18.33
2022-08-23T21:24:16.751Z,15.65
2022-08-23T21:26:44.081Z,17.38
2022-08-23T21:29:11.739Z,17.65
2022-08-23T21:31:39.870Z,16.08
2022-08-23T21:34:08.484Z,17.43
2022-08-23T21:36:38.051Z,17.83
2022-08-23T21:39:05.872Z,16.45
2022-08-23T21:41:38.892Z,15.85
2022-08-23T21:44:14.057Z,20.50
2022-08-23T21:46:42.788Z,17.57
2022-08-23T21:49:16.607Z,15.65
2022-08-23T21:51:45.775Z,14.48
2022-08-23T21:54:14.368Z,14.27
2022-08-23T21:56:42.399Z,15.52
2022-08-23T21:59:12.760Z,15.07
2022-08-23T22:01:41.795Z,16.52
2022-08-23T22:04:11.974Z,14.30
2022-08-23T22:06:41.699Z,13.95
2022-08-23T22:09:16.437Z,15.07
2022-08-23T22:11:46.530Z,16.90
2022-08-23T22:14:21.102Z,14.77
2022-08-23T22:16:49.705Z,15.80
2022-08-23T22:19:23.009Z,17.15
2022-08-23T22:21:52.721Z,12.75
2022-08-23T22:24:25.654Z,12.87
2022-08-23T22:26:54.817Z,16.75
2022-08-23T22:29:22.547Z,14.05
2022-08-23T22:31:50.499Z,14.07
2022-08-23T22:34:17.840Z,13.38
2022-08-23T22:36:46.193Z,12.47
2022-08-23T22:39:19.021Z,13.20
2022-08-23T22:41:46.341Z,12.43
2022-08-23T22:44:14.128Z,13.10
2022-08-23T22:46:41.827Z,12.43
2022-08-23T22:49:09.654Z,13.60
2022-08-23T22:51:38.741Z,15.15
2022-08-23T22:54:10.998Z,16.35
2022-08-23T22:56:43.669Z,15.75
2022-08-23T22:59:11.977Z,14.93
2022-08-23T23:01:45.311Z,13.20
2022-08-23T23:04:17.046Z,16.80
2022-08-23T23:06:45.305Z,14.05
2022-08-23T23:09:13.903Z,12.90
2022-08-23T23:11:42.374Z,12.57
2022-08-23T23:14:11.576Z,15.73
2022-08-23T23:16:39.695Z,11.95
2022-08-23T23:19:26.163Z,12.52
2022-08-23T23:21:56.915Z,14.02
2022-08-23T23:24:30.976Z,15.65
2022-08-23T23:26:59.002Z,12.57
2022-08-23T23:29:27.607Z,13.82
2022-08-23T23:31:55.862Z,15.68
2022-08-23T23:34:24.062Z,13.45
2022-08-23T23:36:56.568Z,13.57
2022-08-23T23:39:25.147Z,12.20
2022-08-23T23:41:52.834Z,13.63
2022-08-23T23:44:29.264Z,15.38
2022-08-23T23:47:01.765Z,14.15
2022-08-23T23:49:32.315Z,13.60
2022-08-23T23:52:02.594Z,14.30
2022-08-23T23:54:30.008Z,16.63
2022-08-23T23:56:57.708Z,12.60
2022-08-23T23:59:26.669Z,14.98
